createdAt,value
2018-04-26T03:28:16.205Z,3
2018-04-26T03:34:46.620Z,7
2018-04-26T03:37:46.801Z,10
2018-04-26T03:40:16.929Z,13
2018-04-26T03:41:47.036Z,17
2018-04-26T03:43:17.095Z,20
2018-04-26T03:44:17.154Z,23
2018-04-26T03:45:47.298Z,27
2018-04-26T03:46:47.368Z,30
2018-04-26T03:47:47.431Z,33
2018-04-26T03:48:17.434Z,37
2018-04-26T03:49:17.493Z,40
2018-04-26T03:49:47.551Z,43
2018-04-26T03:50:17.533Z,47
2018-04-26T03:51:17.657Z,50
2018-04-26T03:51:47.916Z,53
2018-04-26T03:52:17.653Z,57
2018-04-26T03:52:47.732Z,60
2018-04-26T03:53:17.711Z,63
2018-04-26T03:53:47.785Z,67
2018-04-26T03:54:17.769Z,70
2018-04-26T03:54:47.823Z,73
2018-04-26T03:55:17.833Z,80
2018-04-26T03:55:47.879Z,83
2018-04-26T03:56:17.917Z,87
2018-04-26T03:56:47.956Z,90
2018-04-26T03:57:17.957Z,97
2018-04-26T03:57:47.996Z,100
2018-04-26T03:58:18.046Z,107
2018-04-26T03:58:48.081Z,110
2018-04-26T03:59:18.228Z,117
2018-04-26T03:59:48.146Z,120
2018-04-26T04:00:18.167Z,127
2018-04-26T04:00:48.194Z,133
2018-04-26T04:01:18.220Z,137
2018-04-26T04:01:48.316Z,143
2018-04-26T04:02:18.274Z,147
2018-04-26T04:02:48.318Z,153
2018-04-26T04:03:18.365Z,160
2018-04-26T04:03:48.371Z,163
2018-04-26T04:04:18.434Z,170
2018-04-26T04:04:48.463Z,177
2018-04-26T04:05:18.484Z,183
2018-04-26T04:05:48.532Z,190
2018-04-26T04:06:18.556Z,197
2018-04-26T04:06:48.618Z,203
2018-04-26T04:07:18.619Z,210
2018-04-26T04:07:48.669Z,213
2018-04-26T04:08:18.674Z,223
2018-04-26T04:08:48.700Z,230
2018-04-26T04:09:18.749Z,237
2018-04-26T04:09:48.763Z,243
2018-04-26T04:10:18.843Z,250
2018-04-26T04:10:48.834Z,257
2018-04-26T04:11:18.879Z,263
2018-04-26T04:11:48.909Z,270
2018-04-26T04:12:18.931Z,277
2018-04-26T04:12:48.966Z,283
2018-04-26T04:13:18.999Z,293
2018-04-26T04:13:49.065Z,300
2018-04-26T04:14:19.087Z,310
2018-04-26T04:14:49.063Z,317
2018-04-26T04:15:19.198Z,323
2018-04-26T04:15:49.134Z,327
2018-04-26T04:16:19.148Z,333
2018-04-26T04:16:49.194Z,340
2018-04-26T04:17:19.269Z,350
2018-04-26T04:17:49.258Z,363
2018-04-26T04:18:19.328Z,373
2018-04-26T04:18:49.607Z,387
2018-04-26T04:19:19.377Z,397
2018-04-26T04:19:49.382Z,403
2018-04-26T04:20:19.445Z,410
2018-04-26T04:20:49.458Z,420
2018-04-26T04:21:19.481Z,427
2018-04-26T04:21:49.506Z,437
2018-04-26T04:22:19.517Z,447
2018-04-26T04:22:49.547Z,457
2018-04-26T04:23:19.625Z,470
2018-04-26T04:23:49.661Z,483
2018-04-26T04:24:19.651Z,500
2018-04-26T04:24:49.665Z,527
2018-04-26T04:25:19.738Z,560
2018-04-26T04:25:49.737Z,590
2018-04-26T04:26:19.736Z,620
2018-04-26T04:26:49.810Z,640
2018-04-26T04:27:19.798Z,667
2018-04-26T04:27:49.868Z,703
2018-04-26T04:28:19.877Z,740
2018-04-26T04:28:49.904Z,787
2018-04-26T04:29:19.926Z,833
2018-04-26T04:29:49.965Z,877
2018-04-26T04:30:20.002Z,917
2018-04-26T04:30:50.043Z,937
2018-04-26T04:31:20.072Z,967
2018-04-26T04:31:50.090Z,1027
2018-04-26T04:32:20.111Z,1077
2018-04-26T04:32:50.264Z,1080
2018-04-26T04:33:20.216Z,1067
2018-04-26T04:33:50.241Z,1083
2018-04-26T04:34:20.253Z,1123
2018-04-26T04:34:50.283Z,1153
2018-04-26T04:35:20.396Z,1163
2018-04-26T04:35:50.367Z,1173
2018-04-26T04:36:20.401Z,1177
2018-04-26T04:36:50.461Z,1153
2018-04-26T04:37:20.473Z,1127
2018-04-26T04:37:50.485Z,1113
2018-04-26T04:38:20.498Z,1103
2018-04-26T04:38:50.558Z,1083
2018-04-26T04:39:20.564Z,1070
2018-04-26T04:39:50.628Z,1060
2018-04-26T04:40:20.639Z,1050
2018-04-26T04:40:50.653Z,1057
2018-04-26T04:41:20.659Z,1053
2018-04-26T04:41:50.723Z,1047
2018-04-26T04:42:20.742Z,1027
2018-04-26T04:42:50.775Z,1007
2018-04-26T04:43:20.808Z,973
2018-04-26T04:43:50.860Z,933
2018-04-26T04:44:20.852Z,890
2018-04-26T04:44:50.898Z,843
2018-04-26T04:45:20.922Z,770
2018-04-26T04:45:51.262Z,740
2018-04-26T04:46:20.969Z,780
2018-04-26T04:46:51.052Z,793
2018-04-26T04:47:21.028Z,787
2018-04-26T04:47:51.144Z,800
2018-04-26T04:48:21.092Z,797
2018-04-26T04:48:51.152Z,830
2018-04-26T04:49:21.156Z,857
2018-04-26T04:49:51.234Z,877
2018-04-26T04:50:21.253Z,863
2018-04-26T04:50:51.262Z,887
2018-04-26T04:51:21.327Z,900
2018-04-26T04:51:51.360Z,923
2018-04-26T04:52:21.379Z,930
2018-04-26T04:52:51.491Z,960
2018-04-26T04:53:21.444Z,943
2018-04-26T04:53:51.458Z,933
2018-04-26T04:54:21.509Z,973
2018-04-26T04:54:51.557Z,987
2018-04-26T04:55:21.570Z,1010
2018-04-26T04:55:51.621Z,1040
2018-04-26T04:56:21.630Z,1050
2018-04-26T04:56:51.704Z,1043
2018-04-26T04:57:21.725Z,1053
2018-04-26T04:57:51.773Z,1103
2018-04-26T04:58:21.735Z,1137
2018-04-26T04:58:51.771Z,1187
2018-04-26T04:59:21.808Z,1307
2018-04-26T04:59:51.835Z,1333
2018-04-26T05:00:21.826Z,1280
2018-04-26T05:00:51.906Z,1307
2018-04-26T05:01:21.944Z,1340
2018-04-26T05:01:51.981Z,1270
2018-04-26T05:02:21.965Z,1203
2018-04-26T05:02:52.031Z,1133
2018-04-26T05:03:22.021Z,1080
2018-04-26T05:03:52.084Z,1030
2018-04-26T05:04:22.137Z,987
2018-04-26T05:04:52.181Z,1013
2018-04-26T05:05:22.216Z,1037
2018-04-26T05:05:52.209Z,1067
2018-04-26T05:06:22.255Z,1117
2018-04-26T05:06:52.240Z,1157
2018-04-26T05:07:52.333Z,1127
2018-04-26T05:08:22.352Z,1073
2018-04-26T05:08:52.403Z,1007
2018-04-26T05:09:22.407Z,937
2018-04-26T05:09:53.068Z,877
2018-04-26T05:10:22.520Z,827
2018-04-26T05:10:52.532Z,777
2018-04-26T05:11:22.538Z,740
2018-04-26T05:11:52.619Z,733
2018-04-26T05:12:22.675Z,727
2018-04-26T05:12:52.659Z,680
2018-04-26T05:13:22.628Z,647
2018-04-26T05:13:52.711Z,687
2018-04-26T05:14:22.724Z,713
2018-04-26T05:14:52.753Z,757
2018-04-26T05:15:22.818Z,833
2018-04-26T05:15:52.821Z,893
2018-04-26T05:16:22.822Z,943
2018-04-26T05:16:52.873Z,973
2018-04-26T05:17:22.881Z,997
2018-04-26T05:17:52.924Z,1077
2018-04-26T05:18:22.947Z,1180
2018-04-26T05:18:52.987Z,1280
2018-04-26T05:19:23.006Z,1373
2018-04-26T05:19:53.078Z,1473
2018-04-26T05:20:23.094Z,1547
2018-04-26T05:20:53.133Z,1600
2018-04-26T05:21:23.181Z,1657
2018-04-26T05:21:53.174Z,1717
2018-04-26T05:22:23.235Z,1790
2018-04-26T05:22:53.284Z,1870
2018-04-26T05:23:23.264Z,1920
2018-04-26T05:23:53.319Z,1917
2018-04-26T05:24:23.398Z,1883
2018-04-26T05:24:53.396Z,1860
2018-04-26T05:25:23.383Z,1827
2018-04-26T05:25:53.493Z,1840
2018-04-26T05:26:23.491Z,1890
2018-04-26T05:26:53.545Z,1920
2018-04-26T05:27:23.519Z,1940
2018-04-26T05:27:53.572Z,1957
2018-04-26T05:28:23.664Z,1970
2018-04-26T05:28:54.938Z,1953
2018-04-26T05:29:23.644Z,1907
2018-04-26T05:29:53.743Z,1840
2018-04-26T05:30:23.679Z,1777
2018-04-26T05:30:53.733Z,1707
2018-04-26T05:31:23.771Z,1653
2018-04-26T05:31:53.825Z,1603
2018-04-26T05:32:23.803Z,1570
2018-04-26T05:32:53.851Z,1547
2018-04-26T05:33:23.862Z,1530
2018-04-26T05:33:53.912Z,1520
2018-04-26T05:34:23.949Z,1497
2018-04-26T05:34:53.971Z,1487
2018-04-26T05:35:25.514Z,1500
2018-04-26T05:35:54.036Z,1510
2018-04-26T05:36:24.047Z,1470
2018-04-26T05:36:54.177Z,1393
2018-04-26T05:37:24.115Z,1347
2018-04-26T05:37:54.169Z,1263
2018-04-26T05:38:24.176Z,1183
2018-04-26T05:38:54.241Z,1147
2018-04-26T05:39:24.287Z,1143
2018-04-26T05:39:54.319Z,1157
2018-04-26T05:40:54.380Z,1177
2018-04-26T05:41:24.409Z,1170
2018-04-26T05:41:54.414Z,1227
2018-04-26T05:42:24.440Z,1343
2018-04-26T05:42:54.535Z,1473
2018-04-26T05:43:24.536Z,1603
2018-04-26T05:43:54.581Z,1740
2018-04-26T05:44:24.606Z,1853
2018-04-26T05:44:54.674Z,1940
2018-04-26T05:45:24.597Z,1967
2018-04-26T05:45:54.683Z,1953
2018-04-26T05:46:24.764Z,1917
2018-04-26T05:46:54.820Z,1850
2018-04-26T05:47:24.817Z,1770
2018-04-26T05:47:54.809Z,1700
2018-04-26T05:48:24.810Z,1617
2018-04-26T05:48:54.838Z,1540
2018-04-26T05:49:24.874Z,1473
2018-04-26T05:49:54.919Z,1423
2018-04-26T05:50:24.908Z,1410
2018-04-26T05:50:55.075Z,1427
2018-04-26T05:51:25.054Z,1393
2018-04-26T05:51:55.019Z,1353
2018-04-26T05:52:25.077Z,1257
2018-04-26T05:52:55.129Z,1103
2018-04-26T05:53:25.137Z,963
2018-04-26T05:53:55.150Z,867
2018-04-26T05:54:25.221Z,837
2018-04-26T05:54:55.202Z,800
2018-04-26T05:55:25.257Z,793
2018-04-26T05:56:25.374Z,783
2018-04-26T05:56:55.675Z,790
2018-04-26T05:57:25.353Z,817
2018-04-26T05:57:55.507Z,830
2018-04-26T05:58:25.449Z,800
2018-04-26T05:58:55.497Z,733
2018-04-26T05:59:25.542Z,677
2018-04-26T05:59:55.529Z,643
2018-04-26T06:00:25.561Z,627
2018-04-26T06:00:55.591Z,620
2018-04-26T06:01:25.608Z,627
2018-04-26T06:01:55.674Z,623
2018-04-26T06:02:25.666Z,613
2018-04-26T06:02:55.722Z,610
2018-04-26T06:03:25.770Z,633
2018-04-26T06:03:55.795Z,670
2018-04-26T06:04:25.783Z,717
2018-04-26T06:04:55.831Z,773
2018-04-26T06:05:25.836Z,790
2018-04-26T06:05:55.902Z,830
2018-04-26T06:06:25.939Z,857
2018-04-26T06:06:55.940Z,880
2018-04-26T06:07:25.971Z,870
2018-04-26T06:07:56.021Z,850
2018-04-26T06:08:56.060Z,853
2018-04-26T06:09:26.121Z,890
2018-04-26T06:09:56.133Z,923
2018-04-26T06:10:26.141Z,987
2018-04-26T06:10:56.230Z,1090
2018-04-26T06:11:26.260Z,1173
2018-04-26T06:11:56.289Z,1273
2018-04-26T06:12:26.302Z,1240
2018-04-26T06:12:56.362Z,1170
2018-04-26T06:13:26.427Z,1040
2018-04-26T06:13:56.417Z,957
2018-04-26T06:14:26.426Z,777
2018-04-26T06:14:56.470Z,707
2018-04-26T06:15:26.565Z,657
2018-04-26T06:15:56.518Z,617
2018-04-26T06:16:26.578Z,593
2018-04-26T06:16:56.650Z,563
2018-04-26T06:17:26.607Z,580
2018-04-26T06:17:56.641Z,623
2018-04-26T06:18:56.759Z,627
2018-04-26T06:19:56.775Z,610
2018-04-26T06:20:26.825Z,593
2018-04-26T06:21:26.822Z,570
2018-04-26T06:21:56.918Z,547
2018-04-26T06:22:26.890Z,550
2018-04-26T06:22:56.919Z,560
2018-04-26T06:23:26.943Z,587
2018-04-26T06:23:56.989Z,583
2018-04-26T06:24:27.007Z,547
2018-04-26T06:24:57.113Z,507
2018-04-26T06:25:27.105Z,487
2018-04-26T06:25:57.123Z,483
2018-04-26T06:27:27.225Z,487
2018-04-26T06:27:57.233Z,490
2018-04-26T06:28:27.266Z,493
2018-04-26T06:28:57.294Z,537
2018-04-26T06:29:27.317Z,627
2018-04-26T06:29:57.357Z,643
2018-04-26T06:30:27.448Z,587
2018-04-26T06:30:57.551Z,530
2018-04-26T06:31:27.456Z,473
2018-04-26T06:31:57.534Z,437
2018-04-26T06:32:27.531Z,440
2018-04-26T06:32:57.593Z,487
2018-04-26T06:33:27.565Z,613
2018-04-26T06:33:57.694Z,683
2018-04-26T06:34:27.663Z,660
2018-04-26T06:34:57.691Z,647
2018-04-26T06:35:27.723Z,610
2018-04-26T06:35:58.022Z,543
2018-04-26T06:36:27.785Z,463
2018-04-26T06:36:57.893Z,453
2018-04-26T06:37:27.846Z,503
2018-04-26T06:37:57.878Z,470
2018-04-26T06:38:27.915Z,450
2018-04-26T06:38:57.937Z,420
2018-04-26T06:39:27.974Z,380
2018-04-26T06:39:58.014Z,427
2018-04-26T06:40:28.562Z,497
2018-04-26T06:40:58.092Z,603
2018-04-26T06:41:28.057Z,697
2018-04-26T06:41:58.154Z,813
2018-04-26T06:42:28.160Z,897
2018-04-26T06:42:58.163Z,890
2018-04-26T06:43:28.279Z,893
2018-04-26T06:43:58.273Z,900
2018-04-26T06:44:58.290Z,887
2018-04-26T06:45:28.371Z,957
2018-04-26T06:45:58.411Z,1083
2018-04-26T06:46:28.399Z,1203
2018-04-26T06:46:58.467Z,1277
2018-04-26T06:47:28.465Z,1337
2018-04-26T06:47:58.518Z,1403
2018-04-26T06:48:28.526Z,1447
2018-04-26T06:48:58.571Z,1503
2018-04-26T06:49:28.547Z,1547
2018-04-26T06:49:58.605Z,1627
2018-04-26T06:50:28.641Z,1730
2018-04-26T06:50:58.661Z,1783
2018-04-26T06:51:28.660Z,1880
2018-04-26T06:51:58.712Z,2037
2018-04-26T06:52:28.744Z,2213
2018-04-26T06:52:58.804Z,2337
2018-04-26T06:53:28.865Z,2360
2018-04-26T06:54:28.846Z,2363
2018-04-26T06:54:58.912Z,2367
2018-04-26T06:55:28.973Z,2337
2018-04-26T06:55:58.949Z,2287
2018-04-26T06:56:28.989Z,2243
2018-04-26T06:56:59.050Z,2207
2018-04-26T06:57:29.029Z,2173
2018-04-26T06:57:59.079Z,2150
2018-04-26T06:58:29.197Z,2210
2018-04-26T06:58:59.172Z,2450
2018-04-26T06:59:29.198Z,2853
2018-04-26T06:59:59.233Z,3317
2018-04-26T07:00:29.251Z,3763
2018-04-26T07:00:59.269Z,4120
2018-04-26T07:01:29.273Z,4380
2018-04-26T07:01:59.354Z,4593
2018-04-26T07:02:29.376Z,4713
2018-04-26T07:02:59.463Z,4833
2018-04-26T07:03:29.496Z,4963
2018-04-26T07:03:59.490Z,5027
2018-04-26T07:04:29.508Z,4960
2018-04-26T07:04:59.510Z,4907
2018-04-26T07:05:29.608Z,4863
2018-04-26T07:05:59.630Z,4867
2018-04-26T07:06:29.619Z,4920
2018-04-26T07:06:59.630Z,5010
2018-04-26T07:07:29.707Z,4957
2018-04-26T07:07:59.706Z,4753
2018-04-26T07:08:29.750Z,4550
2018-04-26T07:08:59.776Z,4260
2018-04-26T07:09:29.776Z,4137
2018-04-26T07:09:59.849Z,4017
2018-04-26T07:10:29.837Z,3877
2018-04-26T07:10:59.874Z,3720
2018-04-26T07:11:29.923Z,3523
2018-04-26T07:11:59.962Z,3267
2018-04-26T07:12:29.969Z,2873
2018-04-26T07:13:00.004Z,2637
2018-04-26T07:13:30.076Z,2583
2018-04-26T07:14:00.113Z,2587
2018-04-26T07:14:30.124Z,2810
2018-04-26T07:15:00.177Z,3140
2018-04-26T07:15:30.129Z,3583
2018-04-26T07:16:00.183Z,3823
2018-04-26T07:16:30.214Z,3987
2018-04-26T07:17:01.968Z,3923
2018-04-26T07:17:30.316Z,3607
2018-04-26T07:18:01.683Z,3120
2018-04-26T07:18:30.345Z,2837
2018-04-26T07:19:00.963Z,2693
2018-04-26T07:19:30.446Z,2553
2018-04-26T07:20:01.727Z,2410
2018-04-26T07:20:30.495Z,2277
2018-04-26T07:21:01.630Z,2123
2018-04-26T07:21:30.550Z,2040
2018-04-26T07:22:01.135Z,2053
2018-04-26T07:22:30.591Z,1913
2018-04-26T07:23:01.678Z,1760
2018-04-26T07:23:30.819Z,1707
2018-04-26T07:24:01.325Z,1750
2018-04-26T07:24:30.760Z,1870
2018-04-26T07:25:01.486Z,2047
2018-04-26T07:25:30.783Z,2113
2018-04-26T07:26:00.988Z,2050
2018-04-26T07:26:30.806Z,2047
2018-04-26T07:27:01.014Z,2213
2018-04-26T07:27:30.903Z,2493
2018-04-26T07:28:01.271Z,2877
2018-04-26T07:28:31.009Z,2997
2018-04-26T07:29:01.085Z,3033
2018-04-26T07:29:31.044Z,2773
2018-04-26T07:30:01.129Z,2800
2018-04-26T07:30:31.076Z,3300
2018-04-26T07:31:01.617Z,4087
2018-04-26T07:31:31.198Z,4380
2018-04-26T07:32:01.713Z,4733
2018-04-26T07:32:31.181Z,4823
2018-04-26T07:33:01.503Z,4847
2018-04-26T07:33:31.277Z,4917
2018-04-26T07:34:01.514Z,5130
2018-04-26T07:34:31.378Z,5250
2018-04-26T07:35:01.420Z,5547
2018-04-26T07:35:31.384Z,6047
2018-04-26T07:36:01.470Z,6450
2018-04-26T07:36:31.456Z,6893
2018-04-26T07:37:01.484Z,7353
2018-04-26T07:37:31.575Z,7670
2018-04-26T07:38:02.484Z,7923
2018-04-26T07:38:31.554Z,8043
2018-04-26T07:39:01.901Z,7600
2018-04-26T07:39:31.675Z,6917
2018-04-26T07:40:02.286Z,7157
2018-04-26T07:40:31.673Z,8633
2018-04-26T07:41:01.755Z,9923
2018-04-26T07:41:31.753Z,13373
2018-04-26T07:42:01.772Z,5220
2018-04-26T07:42:31.950Z,4737
2018-04-26T07:43:01.909Z,4553
2018-04-26T07:43:31.895Z,4627
2018-04-26T07:44:02.126Z,4850
2018-04-26T07:44:31.919Z,5180
2018-04-26T07:45:01.968Z,5560
2018-04-26T07:45:31.992Z,5540
2018-04-26T07:46:02.019Z,5503
2018-04-26T07:46:32.034Z,5547
2018-04-26T07:47:02.107Z,5640
2018-04-26T07:47:32.100Z,5757
2018-04-26T07:48:02.187Z,5933
2018-04-26T07:48:32.178Z,5843
2018-04-26T07:49:02.216Z,5747
2018-04-26T07:49:32.221Z,5760
2018-04-26T07:50:02.275Z,5667
2018-04-26T07:50:32.279Z,5670
2018-04-26T07:51:02.421Z,5347
2018-04-26T07:51:32.438Z,4523
2018-04-26T07:52:02.466Z,3883
2018-04-26T07:52:32.431Z,3453
2018-04-26T07:53:02.579Z,3290
2018-04-26T07:53:32.497Z,3567
2018-04-26T07:54:02.564Z,4040
2018-04-26T07:54:32.584Z,4193
2018-04-26T07:55:02.615Z,4250
2018-04-26T07:55:32.616Z,4233
2018-04-26T07:56:02.738Z,3817
2018-04-26T07:56:32.681Z,3833
2018-04-26T07:57:32.765Z,3853
2018-04-26T07:58:02.771Z,3627
2018-04-26T07:58:32.780Z,3433
2018-04-26T07:59:02.931Z,3203
2018-04-26T07:59:32.856Z,2987
2018-04-26T08:00:02.879Z,2883
2018-04-26T08:00:32.903Z,2963
2018-04-26T08:01:02.999Z,3100
2018-04-26T08:01:33.022Z,3137
2018-04-26T08:02:03.019Z,3277
2018-04-26T08:02:33.021Z,3230
2018-04-26T08:03:03.075Z,3307
2018-04-26T08:03:33.077Z,3773
2018-04-26T08:04:03.138Z,4107
2018-04-26T08:04:33.145Z,4360
2018-04-26T08:05:03.219Z,4390
2018-04-26T08:05:33.205Z,4497
2018-04-26T08:06:03.321Z,5143
2018-04-26T08:06:33.288Z,6290
2018-04-26T08:07:03.320Z,7243
2018-04-26T08:07:33.392Z,8240
2018-04-26T08:08:03.402Z,9263
2018-04-26T08:08:33.420Z,10570
2018-04-26T08:09:03.481Z,13483
2018-04-26T08:09:33.486Z,9650
2018-04-26T08:10:03.524Z,9180
2018-04-26T08:10:33.542Z,9300
2018-04-26T08:11:03.648Z,11407
2018-04-26T08:11:33.625Z,19327
2018-04-26T08:12:03.651Z,19730
2018-04-26T08:12:33.699Z,16560
2018-04-26T08:13:03.738Z,16450
2018-04-26T08:13:33.812Z,9223
2018-04-26T08:14:03.854Z,8510
2018-04-26T08:14:33.792Z,8873
2018-04-26T08:15:03.850Z,9303
2018-04-26T08:15:33.877Z,9697
2018-04-26T08:16:03.979Z,8690
2018-04-26T08:16:33.923Z,9360
2018-04-26T08:17:03.965Z,13043
2018-04-26T08:17:33.989Z,13840
2018-04-26T08:18:04.043Z,32953
2018-04-26T08:18:34.053Z,24213
2018-04-26T08:19:04.127Z,47040
2018-04-26T08:19:34.162Z,45327
2018-04-26T08:20:04.346Z,21393
2018-04-26T08:20:34.165Z,44960
2018-04-26T08:21:04.231Z,12960
2018-04-26T08:21:34.255Z,16427
2018-04-26T08:22:04.257Z,11000
2018-04-26T08:22:34.431Z,10217
2018-04-26T08:23:04.337Z,12800
2018-04-26T08:23:34.331Z,10367
2018-04-26T08:24:04.394Z,7380
2018-04-26T08:24:34.394Z,5880
2018-04-26T08:25:04.568Z,5407
2018-04-26T08:25:34.478Z,4607
2018-04-26T08:26:04.534Z,4447
2018-04-26T08:26:34.512Z,4817
2018-04-26T08:27:04.623Z,5380
2018-04-26T08:27:34.603Z,6297
2018-04-26T08:28:04.630Z,6430
2018-04-26T08:28:34.634Z,6437
2018-04-26T08:29:04.787Z,5840
2018-04-26T08:29:34.732Z,5327
2018-04-26T08:30:04.739Z,5090
2018-04-26T08:30:34.794Z,5360
2018-04-26T08:31:04.819Z,5213
2018-04-26T08:31:34.837Z,4617
2018-04-26T08:32:04.860Z,4163
2018-04-26T08:32:34.889Z,3813
2018-04-26T08:33:04.929Z,3453
2018-04-26T08:33:34.992Z,3343
2018-04-26T08:34:05.026Z,3443
2018-04-26T08:34:35.038Z,3940
2018-04-26T08:35:05.043Z,4773
2018-04-26T08:35:35.071Z,4990
2018-04-26T08:36:05.333Z,4830
2018-04-26T08:36:35.129Z,4880
2018-04-26T08:37:05.178Z,5113
2018-04-26T08:37:35.230Z,5133
2018-04-26T08:38:05.257Z,5080
2018-04-26T08:38:35.248Z,5173
2018-04-26T08:39:05.297Z,5303
2018-04-26T08:39:35.307Z,4810
2018-04-26T08:40:05.410Z,4737
2018-04-26T08:40:35.391Z,5477
2018-04-26T08:41:05.457Z,5913
2018-04-26T08:41:35.462Z,6070
2018-04-26T08:42:05.535Z,6470
2018-04-26T08:42:35.537Z,6510
2018-04-26T08:43:05.670Z,6540
2018-04-26T08:43:35.615Z,6483
2018-04-26T08:44:05.665Z,5990
2018-04-26T08:44:35.659Z,5367
2018-04-26T08:45:05.687Z,5827
2018-04-26T08:45:35.761Z,6703
2018-04-26T08:46:05.724Z,5053
2018-04-26T08:46:35.753Z,4387
2018-04-26T08:47:05.803Z,4337
2018-04-26T08:47:35.821Z,3780
2018-04-26T08:48:05.853Z,3203
2018-04-26T08:48:35.927Z,3040
2018-04-26T08:49:05.918Z,3057
2018-04-26T08:49:35.932Z,3053
2018-04-26T08:50:06.073Z,2953
2018-04-26T08:50:35.989Z,3010
2018-04-26T08:51:06.033Z,3200
2018-04-26T08:51:36.057Z,3430
2018-04-26T08:52:06.092Z,3773
2018-04-26T08:52:36.107Z,3580
2018-04-26T08:53:06.170Z,3427
2018-04-26T08:53:36.166Z,3373
2018-04-26T08:54:06.225Z,3100
2018-04-26T08:54:36.274Z,2680
2018-04-26T08:55:06.293Z,2553
2018-04-26T08:55:36.341Z,2587
2018-04-26T08:56:06.374Z,2853
2018-04-26T08:56:36.351Z,3030
2018-04-26T08:57:06.461Z,3010
2018-04-26T08:57:36.456Z,3050
2018-04-26T08:58:06.474Z,3117
2018-04-26T08:58:36.513Z,3220
2018-04-26T08:59:06.545Z,3393
2018-04-26T08:59:36.571Z,3583
2018-04-26T09:00:06.607Z,3797
2018-04-26T09:00:36.626Z,4043
2018-04-26T09:01:06.711Z,3837
2018-04-26T09:01:36.741Z,3453
2018-04-26T09:02:06.985Z,3157
2018-04-26T09:02:36.743Z,3067
2018-04-26T09:03:06.828Z,2863
2018-04-26T09:03:36.825Z,3070
2018-04-26T09:04:06.827Z,3200
2018-04-26T09:04:36.892Z,3720
2018-04-26T09:05:06.931Z,3857
2018-04-26T09:05:36.949Z,3457
2018-04-26T09:06:07.010Z,2963
2018-04-26T09:06:37.020Z,2427
2018-04-26T09:07:07.101Z,2340
2018-04-26T09:07:37.029Z,3017
2018-04-26T09:08:07.136Z,3730
2018-04-26T09:08:37.111Z,4313
2018-04-26T09:09:07.170Z,4687
2018-04-26T09:09:37.207Z,4837
2018-04-26T09:10:07.225Z,5997
2018-04-26T09:10:37.262Z,6923
2018-04-26T09:11:07.299Z,8007
2018-04-26T09:11:37.322Z,8880
2018-04-26T09:12:07.374Z,10413
2018-04-26T09:12:37.391Z,15360
2018-04-26T09:13:07.467Z,10483
2018-04-26T09:13:37.445Z,12140
2018-04-26T09:14:07.480Z,9580
2018-04-26T09:14:37.508Z,8837
2018-04-26T09:15:07.540Z,8597
2018-04-26T09:15:37.628Z,9893
2018-04-26T09:16:07.591Z,11350
2018-04-26T09:16:37.596Z,11380
2018-04-26T09:17:07.652Z,18387
2018-04-26T09:17:37.648Z,11880
2018-04-26T09:18:37.769Z,11837
2018-04-26T09:19:07.761Z,12170
2018-04-26T09:19:37.774Z,12967
2018-04-26T09:20:07.813Z,17953
2018-04-26T09:20:37.877Z,18340
2018-04-26T09:21:07.876Z,20127
2018-04-26T09:21:37.890Z,15847
2018-04-26T09:22:07.935Z,14593
2018-04-26T09:22:37.953Z,14100
2018-04-26T09:23:07.993Z,12273
2018-04-26T09:23:38.014Z,11420
2018-04-26T09:24:08.096Z,11917
2018-04-26T09:24:38.093Z,13490
2018-04-26T09:25:08.128Z,13353
2018-04-26T09:25:38.150Z,13277
2018-04-26T09:26:08.231Z,12737
2018-04-26T09:26:38.241Z,13267
2018-04-26T09:27:08.243Z,13507
2018-04-26T09:27:38.298Z,16253
2018-04-26T09:28:08.331Z,15533
2018-04-26T09:28:38.359Z,28800
2018-04-26T09:29:08.365Z,58707
2018-04-26T09:29:38.422Z,44477
2018-04-26T09:30:08.496Z,47143
2018-04-26T09:30:38.498Z,26300
2018-04-26T09:31:08.515Z,28870
2018-04-26T09:31:38.542Z,33970
2018-04-26T09:32:08.564Z,18877
2018-04-26T09:32:38.634Z,18403
2018-04-26T09:33:08.663Z,45450
2018-04-26T09:33:38.632Z,55893
2018-04-26T09:34:08.679Z,52733
2018-04-26T09:34:38.745Z,51680
2018-04-26T09:35:08.732Z,36507
2018-04-26T09:35:38.749Z,56360
2018-04-26T09:36:08.836Z,50770
2018-04-26T09:36:38.812Z,47530
2018-04-26T09:37:08.864Z,32003
2018-04-26T09:37:38.883Z,13653
2018-04-26T09:38:08.917Z,13557
2018-04-26T09:38:38.998Z,15303
2018-04-26T09:39:08.982Z,10580
2018-04-26T09:39:39.043Z,7610
2018-04-26T09:40:09.045Z,6087
2018-04-26T09:40:39.082Z,5057
2018-04-26T09:41:09.177Z,4280
2018-04-26T09:41:39.203Z,3473
2018-04-26T09:42:09.197Z,2930
2018-04-26T09:42:39.217Z,2560
2018-04-26T09:43:09.272Z,2377
2018-04-26T09:43:39.247Z,2307
2018-04-26T09:44:09.360Z,2287
2018-04-26T09:44:39.350Z,2200
2018-04-26T09:45:09.644Z,2090
2018-04-26T09:45:39.443Z,1903
2018-04-26T09:46:09.457Z,1627
2018-04-26T09:46:39.441Z,1570
2018-04-26T09:47:09.515Z,1607
2018-04-26T09:47:39.532Z,1613
2018-04-26T09:48:09.594Z,1553
2018-04-26T09:48:39.601Z,1513
2018-04-26T09:49:09.660Z,1460
2018-04-26T09:49:39.660Z,1410
2018-04-26T09:50:09.679Z,1507
2018-04-26T09:50:39.714Z,1750
2018-04-26T09:51:09.716Z,1967
2018-04-26T09:51:39.774Z,2353
2018-04-26T09:52:09.795Z,2790
2018-04-26T09:52:39.806Z,3177
2018-04-26T09:53:09.896Z,3377
2018-04-26T09:53:39.864Z,3537
2018-04-26T09:54:09.883Z,3840
2018-04-26T09:54:39.923Z,4013
2018-04-26T09:55:09.987Z,4840
2018-04-26T09:55:40.021Z,6710
2018-04-26T09:56:10.049Z,8763
2018-04-26T09:56:40.081Z,10717
2018-04-26T09:57:10.078Z,13500
2018-04-26T09:57:40.117Z,15797
2018-04-26T09:58:10.149Z,15873
2018-04-26T09:58:40.178Z,15233
2018-04-26T09:59:10.234Z,55453
2018-04-26T09:59:40.237Z,51943
2018-04-26T10:00:10.289Z,27523
2018-04-26T10:00:40.358Z,40897
2018-04-26T10:01:10.342Z,14903
2018-04-26T10:01:40.355Z,20390
2018-04-26T10:02:10.414Z,52913
2018-04-26T10:02:40.399Z,45620
2018-04-26T10:03:10.444Z,25397
2018-04-26T10:03:40.460Z,17027
2018-04-26T10:04:10.508Z,60300
2018-04-26T10:04:40.516Z,56430
2018-04-26T10:05:10.576Z,21407
2018-04-26T10:05:40.643Z,28173
2018-04-26T10:06:10.640Z,61947
2018-04-26T10:06:40.644Z,58690
2018-04-26T10:07:10.736Z,60887
2018-04-26T10:07:40.729Z,59553
2018-04-26T10:08:10.739Z,51420
2018-04-26T10:08:40.814Z,46997
2018-04-26T10:09:10.799Z,58440
2018-04-26T10:09:40.825Z,34830
2018-04-26T10:10:10.860Z,60703
2018-04-26T10:10:40.948Z,60023
2018-04-26T10:11:10.926Z,60630
2018-04-26T10:11:40.954Z,60560
2018-04-26T10:12:10.987Z,38237
2018-04-26T10:12:41.002Z,26153
2018-04-26T10:13:11.044Z,61190
2018-04-26T10:13:41.090Z,62707
2018-04-26T10:14:11.106Z,51347
2018-04-26T10:14:41.214Z,60837
2018-04-26T10:15:11.245Z,20650
2018-04-26T10:15:41.278Z,21520
2018-04-26T10:16:11.286Z,18073
2018-04-26T10:16:41.271Z,59450
2018-04-26T10:17:11.314Z,57490
2018-04-26T10:17:41.347Z,32530
2018-04-26T10:18:11.388Z,9387
2018-04-26T10:18:41.461Z,16623
2018-04-26T10:19:11.454Z,34783
2018-04-26T10:19:41.476Z,8460
2018-04-26T10:20:11.499Z,8240
2018-04-26T10:20:41.561Z,8513
2018-04-26T10:21:11.606Z,22863
2018-04-26T10:21:41.554Z,17057
2018-04-26T10:22:11.649Z,6297
2018-04-26T10:22:41.633Z,5177
2018-04-26T10:23:11.737Z,4797
2018-04-26T10:23:41.688Z,4427
2018-04-26T10:24:11.728Z,3883
2018-04-26T10:24:41.751Z,3383
2018-04-26T10:25:11.782Z,2870
2018-04-26T10:25:41.841Z,2427
2018-04-26T10:26:11.902Z,2100
2018-04-26T10:26:41.868Z,1750
2018-04-26T10:27:12.144Z,1540
2018-04-26T10:27:42.204Z,1390
2018-04-26T10:28:12.255Z,1310
2018-04-26T10:28:42.269Z,1337
2018-04-26T10:29:12.251Z,1407
2018-04-26T10:29:42.336Z,1510
2018-04-26T10:30:12.381Z,1737
2018-04-26T10:30:42.412Z,1963
2018-04-26T10:31:12.397Z,2170
2018-04-26T10:31:42.433Z,2300
2018-04-26T10:32:12.464Z,2380
2018-04-26T10:32:42.504Z,2460